createdAt,value
2018-04-01T00:00:40.880Z,19.45
2018-04-01T00:01:41.204Z,19.45
2018-04-01T00:02:40.942Z,19.42
2018-04-01T00:03:40.963Z,19.42
2018-04-01T00:04:40.992Z,19.35
2018-04-01T00:05:40.970Z,19.35
2018-04-01T00:06:41.048Z,19.35
2018-04-01T00:07:41.030Z,19.39
2018-04-01T00:08:41.406Z,19.43
2018-04-01T00:09:41.141Z,19.40
2018-04-01T00:10:41.116Z,19.40
2018-04-01T00:11:41.203Z,19.35
2018-04-01T00:12:41.236Z,19.38
2018-04-01T00:13:41.257Z,19.35
2018-04-01T00:14:41.235Z,19.40
2018-04-01T00:15:41.628Z,19.45
2018-04-01T00:16:41.291Z,19.40
2018-04-01T00:17:41.318Z,19.40
2018-04-01T00:18:41.404Z,19.39
2018-04-01T00:19:41.381Z,19.35
2018-04-01T00:20:41.506Z,19.35
2018-04-01T00:21:41.441Z,19.35
2018-04-01T00:22:41.817Z,19.38
2018-04-01T00:23:41.547Z,19.35
2018-04-01T00:24:41.575Z,19.39
2018-04-01T00:25:41.604Z,19.34
2018-04-01T00:26:41.587Z,19.32
2018-04-01T00:27:41.673Z,19.35
2018-04-01T00:28:41.992Z,19.34
2018-04-01T00:29:41.740Z,19.31
2018-04-01T00:30:41.703Z,19.30
2018-04-01T00:31:41.795Z,19.27
2018-04-01T00:32:41.816Z,19.30
2018-04-01T00:33:41.788Z,19.32
2018-04-01T00:34:42.178Z,19.28
2018-04-01T00:35:41.853Z,19.25
2018-04-01T00:36:41.933Z,19.34
2018-04-01T00:37:41.984Z,19.34
2018-04-01T00:38:41.984Z,19.34
2018-04-01T00:39:42.035Z,19.35
2018-04-01T00:40:42.345Z,19.27
2018-04-01T00:41:42.083Z,19.23
2018-04-01T00:42:42.107Z,19.31
2018-04-01T00:43:42.243Z,19.28
2018-04-01T00:44:42.165Z,19.30
2018-04-01T00:45:42.216Z,19.27
2018-04-01T00:46:42.520Z,19.30
2018-04-01T00:47:42.252Z,19.27
2018-04-01T00:48:42.229Z,19.27
2018-04-01T00:49:42.264Z,19.30
2018-04-01T00:50:42.287Z,19.32
2018-04-01T00:51:42.317Z,19.24
2018-04-01T00:52:42.707Z,19.31
2018-04-01T00:53:42.385Z,19.28
2018-04-01T00:54:42.471Z,19.30
2018-04-01T00:55:42.510Z,19.21
2018-04-01T00:56:42.515Z,19.31
2018-04-01T00:57:42.555Z,19.27
2018-04-01T00:58:42.823Z,19.27
2018-04-01T00:59:42.600Z,19.28
2018-04-01T01:00:42.648Z,19.25
2018-04-01T01:01:42.725Z,19.27
2018-04-01T01:02:42.771Z,19.25
2018-04-01T01:03:42.720Z,19.31
2018-04-01T01:04:43.047Z,19.16
2018-04-01T01:05:42.792Z,19.25
2018-04-01T01:06:42.817Z,19.16
2018-04-01T01:07:42.786Z,19.20
2018-04-01T01:08:42.849Z,19.23
2018-04-01T01:09:42.847Z,19.24
2018-04-01T01:10:43.224Z,19.28
2018-04-01T01:11:42.984Z,19.23
2018-04-01T01:12:42.931Z,19.23
2018-04-01T01:13:43.075Z,19.20
2018-04-01T01:14:43.054Z,19.24
2018-04-01T01:15:43.084Z,19.23
2018-04-01T01:16:43.421Z,19.15
2018-04-01T01:17:43.079Z,19.13
2018-04-01T01:18:43.156Z,19.16
2018-04-01T01:19:43.195Z,19.17
2018-04-01T01:20:43.265Z,19.20
2018-04-01T01:21:43.238Z,19.17
2018-04-01T01:22:43.573Z,19.15
2018-04-01T01:23:43.454Z,19.16
2018-04-01T01:24:43.282Z,19.20
2018-04-01T01:25:43.313Z,19.23
2018-04-01T01:26:43.356Z,19.16
2018-04-01T01:27:43.372Z,19.15
2018-04-01T01:28:43.800Z,19.13
2018-04-01T01:29:43.425Z,19.16
2018-04-01T01:30:43.506Z,19.17
2018-04-01T01:31:43.529Z,19.13
2018-04-01T01:32:43.519Z,19.17
2018-04-01T01:33:43.545Z,19.10
2018-04-01T01:34:43.924Z,19.13
2018-04-01T01:35:43.607Z,19.17
2018-04-01T01:36:43.697Z,19.13
2018-04-01T01:37:43.662Z,19.20
2018-04-01T01:38:43.743Z,19.17
2018-04-01T01:39:43.789Z,19.12
2018-04-01T01:40:43.755Z,19.12
2018-04-01T01:41:44.132Z,19.12
2018-04-01T01:42:43.862Z,19.07
2018-04-01T01:43:43.906Z,19.15
2018-04-01T01:44:43.926Z,19.13
2018-04-01T01:45:43.947Z,19.10
2018-04-01T01:46:43.978Z,19.09
2018-04-01T01:47:44.007Z,19.06
2018-04-01T01:48:44.332Z,19.15
2018-04-01T01:49:44.069Z,19.13
2018-04-01T01:50:44.043Z,19.06
2018-04-01T01:51:44.122Z,19.12
2018-04-01T01:52:44.152Z,19.09
2018-04-01T01:53:44.176Z,19.09
2018-04-01T01:54:44.159Z,19.10
2018-04-01T01:55:44.548Z,19.13
2018-04-01T01:56:44.233Z,19.07
2018-04-01T01:57:44.300Z,19.07
2018-04-01T01:58:44.276Z,19.16
2018-04-01T01:59:44.357Z,19.13
2018-04-01T02:00:44.436Z,19.07
2018-04-01T02:01:44.362Z,19.07
2018-04-01T02:02:44.754Z,19.09
2018-04-01T02:03:44.496Z,19.06
2018-04-01T02:04:44.553Z,19.09
2018-04-01T02:05:44.531Z,19.12
2018-04-01T02:06:44.529Z,19.12
2018-04-01T02:07:44.593Z,19.07
2018-04-01T02:08:44.582Z,19.10
2018-04-01T02:09:44.959Z,19.01
2018-04-01T02:10:44.678Z,19.06
2018-04-01T02:11:44.711Z,19.07
2018-04-01T02:12:44.739Z,19.09
2018-04-01T02:13:44.711Z,19.07
2018-04-01T02:14:44.741Z,19.10
2018-04-01T02:15:44.839Z,19.10
2018-04-01T02:16:45.152Z,19.09
2018-04-01T02:17:44.895Z,19.01
2018-04-01T02:18:44.864Z,19.09
2018-04-01T02:19:44.894Z,19.09
2018-04-01T02:20:44.918Z,19.06
2018-04-01T02:21:44.997Z,19.06
2018-04-01T02:22:44.974Z,19.06
2018-04-01T02:23:45.368Z,19.09
2018-04-01T02:24:45.064Z,19.02
2018-04-01T02:25:45.112Z,19.07
2018-04-01T02:26:45.225Z,19.06
2018-04-01T02:27:45.124Z,19.13
2018-04-01T02:28:45.161Z,19.06
2018-04-01T02:29:45.241Z,19.09
2018-04-01T02:30:45.561Z,19.09
2018-04-01T02:31:45.335Z,19.09
2018-04-01T02:32:45.320Z,19.10
2018-04-01T02:33:45.348Z,19.09
2018-04-01T02:34:45.331Z,19.12
2018-04-01T02:35:45.420Z,19.12
2018-04-01T02:36:45.439Z,19.09
2018-04-01T02:37:45.766Z,19.07
2018-04-01T02:38:45.500Z,19.09
2018-04-01T02:39:45.570Z,19.13
2018-04-01T02:40:45.502Z,19.09
2018-04-01T02:41:45.584Z,19.09
2018-04-01T02:42:45.626Z,19.05
2018-04-01T02:43:45.588Z,19.07
2018-04-01T02:44:45.978Z,19.10
2018-04-01T02:45:45.695Z,19.09
2018-04-01T02:46:45.676Z,19.09
2018-04-01T02:47:45.709Z,19.09
2018-04-01T02:48:45.786Z,19.06
2018-04-01T02:49:45.816Z,19.13
2018-04-01T02:50:45.845Z,19.07
2018-04-01T02:51:46.171Z,19.09
2018-04-01T02:52:45.917Z,19.10
2018-04-01T02:53:45.880Z,19.10
2018-04-01T02:54:45.906Z,19.09
2018-04-01T02:55:45.999Z,19.06
2018-04-01T02:56:45.964Z,19.12
2018-04-01T02:57:46.349Z,19.07
2018-04-01T02:58:46.082Z,19.02
2018-04-01T02:59:46.111Z,19.06
2018-04-01T03:00:46.154Z,19.13
2018-04-01T03:01:46.115Z,19.07
2018-04-01T03:02:46.144Z,18.99
2018-04-01T03:03:46.519Z,19.01
2018-04-01T03:04:46.249Z,19.12
2018-04-01T03:05:46.280Z,19.10
2018-04-01T03:06:46.305Z,18.99
2018-04-01T03:07:46.418Z,19.07
2018-04-01T03:08:46.389Z,19.06
2018-04-01T03:09:46.698Z,19.07
2018-04-01T03:10:46.438Z,19.06
2018-04-01T03:11:46.420Z,19.06
2018-04-01T03:12:46.432Z,19.10
2018-04-01T03:13:46.524Z,19.13
2018-04-01T03:14:46.559Z,19.06
2018-04-01T03:15:46.881Z,18.99
2018-04-01T03:16:46.598Z,19.10
2018-04-01T03:17:46.687Z,19.02
2018-04-01T03:18:46.610Z,19.05
2018-04-01T03:19:46.636Z,19.02
2018-04-01T03:20:46.727Z,18.97
2018-04-01T03:21:46.985Z,19.06
2018-04-01T03:22:46.789Z,19.06
2018-04-01T03:23:46.745Z,18.99
2018-04-01T03:24:46.785Z,19.07
2018-04-01T03:25:46.806Z,18.99
2018-04-01T03:26:46.833Z,19.05
2018-04-01T03:27:47.216Z,19.02
2018-04-01T03:28:46.902Z,19.01
2018-04-01T03:29:46.922Z,19.02
2018-04-01T03:30:46.949Z,19.02
2018-04-01T03:31:46.978Z,18.93
2018-04-01T03:32:47.058Z,18.96
2018-04-01T03:33:47.393Z,19.01
2018-04-01T03:34:47.071Z,19.02
2018-04-01T03:35:47.196Z,18.99
2018-04-01T03:36:47.127Z,19.06
2018-04-01T03:37:47.200Z,18.97
2018-04-01T03:38:47.180Z,19.01
2018-04-01T03:39:47.561Z,18.89
2018-04-01T03:40:47.243Z,18.99
2018-04-01T03:41:47.321Z,18.96
2018-04-01T03:42:47.368Z,18.97
2018-04-01T03:43:47.332Z,18.96
2018-04-01T03:44:47.352Z,18.90
2018-04-01T03:45:47.744Z,18.97
2018-04-01T03:46:47.418Z,18.87
2018-04-01T03:47:47.494Z,18.97
2018-04-01T03:48:47.468Z,18.90
2018-04-01T03:49:47.556Z,18.89
2018-04-01T03:50:47.584Z,18.89
2018-04-01T03:51:47.915Z,18.90
2018-04-01T03:52:47.596Z,18.93
2018-04-01T03:53:47.612Z,18.90
2018-04-01T03:54:47.694Z,18.90
2018-04-01T03:55:47.669Z,18.94
2018-04-01T03:56:47.702Z,18.91
2018-04-01T03:57:48.032Z,18.86
2018-04-01T03:58:47.807Z,18.93
2018-04-01T03:59:47.796Z,18.87
2018-04-01T04:00:47.866Z,18.86
2018-04-01T04:01:47.843Z,18.91
2018-04-01T04:02:47.873Z,18.86
2018-04-01T04:03:48.252Z,18.89
2018-04-01T04:04:47.982Z,18.87
2018-04-01T04:05:47.972Z,18.94
2018-04-01T04:06:47.990Z,18.97
2018-04-01T04:07:48.021Z,18.86
2018-04-01T04:08:48.056Z,18.99
2018-04-01T04:09:48.092Z,18.91
2018-04-01T04:10:48.511Z,18.89
2018-04-01T04:11:48.136Z,18.91
2018-04-01T04:12:48.166Z,18.97
2018-04-01T04:13:48.192Z,18.91
2018-04-01T04:14:48.224Z,18.91
2018-04-01T04:15:48.272Z,18.91
2018-04-01T04:16:48.276Z,18.90
2018-04-01T04:17:48.609Z,18.93
2018-04-01T04:18:48.411Z,18.94
2018-04-01T04:19:48.369Z,18.82
2018-04-01T04:20:48.453Z,18.93
2018-04-01T04:21:48.540Z,18.93
2018-04-01T04:22:48.456Z,18.84
2018-04-01T04:23:48.482Z,18.89
2018-04-01T04:24:48.887Z,18.87
2018-04-01T04:25:48.590Z,18.91
2018-04-01T04:26:48.619Z,18.89
2018-04-01T04:27:48.600Z,18.84
2018-04-01T04:28:48.683Z,18.86
2018-04-01T04:29:48.713Z,18.99
2018-04-01T04:30:48.686Z,18.89
2018-04-01T04:31:49.066Z,18.87
2018-04-01T04:32:48.737Z,18.93
2018-04-01T04:33:48.772Z,18.79
2018-04-01T04:34:48.803Z,18.94
2018-04-01T04:35:48.831Z,18.86
2018-04-01T04:36:48.870Z,18.87
2018-04-01T04:37:48.891Z,18.93
2018-04-01T04:38:49.334Z,18.99
2018-04-01T04:39:48.964Z,18.89
2018-04-01T04:40:48.975Z,18.91
2018-04-01T04:41:49.001Z,18.84
2018-04-01T04:42:49.030Z,18.86
2018-04-01T04:43:49.120Z,18.83
2018-04-01T04:44:49.092Z,18.83
2018-04-01T04:45:49.431Z,18.83
2018-04-01T04:46:49.148Z,18.84
2018-04-01T04:47:49.228Z,18.86
2018-04-01T04:48:49.253Z,18.83
2018-04-01T04:49:49.286Z,18.86
2018-04-01T04:50:49.260Z,18.86
2018-04-01T04:51:49.299Z,18.84
2018-04-01T04:52:49.680Z,18.90
2018-04-01T04:53:49.461Z,18.79
2018-04-01T04:54:49.435Z,18.86
2018-04-01T04:55:49.405Z,18.84
2018-04-01T04:56:49.516Z,18.91
2018-04-01T04:57:49.521Z,18.82
2018-04-01T04:58:49.540Z,18.82
2018-04-01T04:59:49.875Z,18.94
2018-04-01T05:00:49.557Z,18.78
2018-04-01T05:01:49.585Z,18.82
2018-04-01T05:02:49.609Z,18.87
2018-04-01T05:03:49.712Z,18.84
2018-04-01T05:04:49.714Z,18.78
2018-04-01T05:05:49.699Z,18.84
2018-04-01T05:06:50.093Z,18.83
2018-04-01T05:07:49.752Z,18.83
2018-04-01T05:08:49.836Z,18.90
2018-04-01T05:09:49.808Z,18.84
2018-04-01T05:10:49.838Z,18.87
2018-04-01T05:11:49.928Z,18.89
2018-04-01T05:12:49.911Z,18.87
2018-04-01T05:13:50.236Z,18.91
2018-04-01T05:14:49.955Z,18.83
2018-04-01T05:15:50.068Z,18.86
2018-04-01T05:16:50.017Z,18.82
2018-04-01T05:17:50.042Z,18.89
2018-04-01T05:18:50.122Z,18.89
2018-04-01T05:19:50.111Z,18.86
2018-04-01T05:20:50.449Z,18.82
2018-04-01T05:21:50.224Z,18.84
2018-04-01T05:22:50.258Z,18.91
2018-04-01T05:23:50.267Z,18.91
2018-04-01T05:24:50.248Z,18.93
2018-04-01T05:25:50.321Z,18.93
2018-04-01T05:26:50.302Z,18.87
2018-04-01T05:27:50.630Z,18.93
2018-04-01T05:28:50.410Z,18.91
2018-04-01T05:29:50.605Z,18.79
2018-04-01T05:30:50.501Z,18.90
2018-04-01T05:31:50.445Z,18.86
2018-04-01T05:32:50.502Z,18.79
2018-04-01T05:33:50.808Z,18.87
2018-04-01T05:34:50.536Z,18.86
2018-04-01T05:35:50.616Z,18.84
2018-04-01T05:36:50.675Z,18.84
2018-04-01T05:37:50.619Z,18.91
2018-04-01T05:38:50.715Z,18.78
2018-04-01T05:39:50.987Z,18.83
2018-04-01T05:40:50.709Z,18.93
2018-04-01T05:41:50.741Z,18.82
2018-04-01T05:42:50.763Z,18.82
2018-04-01T05:43:50.797Z,18.84
2018-04-01T05:44:50.825Z,18.74
2018-04-01T05:45:51.150Z,18.94
2018-04-01T05:46:50.919Z,18.84
2018-04-01T05:47:50.910Z,18.83
2018-04-01T05:48:50.976Z,18.76
2018-04-01T05:49:50.969Z,18.93
2018-04-01T05:50:51.053Z,18.97
2018-04-01T05:51:51.327Z,18.89
2018-04-01T05:52:51.055Z,18.91
2018-04-01T05:53:51.138Z,18.90
2018-04-01T05:54:51.162Z,18.86
2018-04-01T05:55:51.150Z,18.93
2018-04-01T05:56:51.178Z,18.99
2018-04-01T05:57:51.547Z,18.78
2018-04-01T05:58:51.285Z,18.76
2018-04-01T05:59:51.260Z,18.89
2018-04-01T06:00:51.293Z,18.84
2018-04-01T06:01:51.316Z,18.91
2018-04-01T06:02:51.410Z,18.90
2018-04-01T06:03:51.791Z,18.84
2018-04-01T06:04:51.412Z,18.87
2018-04-01T06:05:51.446Z,18.83
2018-04-01T06:06:51.472Z,18.97
2018-04-01T06:07:51.590Z,18.97
2018-04-01T06:08:51.584Z,18.90
2018-04-01T06:09:51.877Z,18.93
2018-04-01T06:10:51.597Z,18.90
2018-04-01T06:11:51.677Z,18.87
2018-04-01T06:12:51.635Z,18.93
2018-04-01T06:13:51.660Z,18.93
2018-04-01T06:14:51.691Z,18.93
2018-04-01T06:15:52.076Z,18.89
2018-04-01T06:16:51.765Z,18.83
2018-04-01T06:17:51.791Z,18.86
2018-04-01T06:18:51.816Z,18.86
2018-04-01T06:19:51.848Z,18.87
2018-04-01T06:20:51.883Z,18.89
2018-04-01T06:21:52.195Z,18.93
2018-04-01T06:22:51.978Z,18.89
2018-04-01T06:23:51.974Z,18.86
2018-04-01T06:24:52.038Z,18.97
2018-04-01T06:25:52.012Z,18.90
2018-04-01T06:26:52.132Z,18.96
2018-04-01T06:27:52.435Z,19.01
2018-04-01T06:28:52.098Z,18.90
2018-04-01T06:29:52.163Z,18.86
2018-04-01T06:30:52.211Z,18.97
2018-04-01T06:31:52.194Z,18.94
2018-04-01T06:32:52.260Z,18.87
2018-04-01T06:33:52.547Z,18.97
2018-04-01T06:34:52.320Z,18.89
2018-04-01T06:35:52.298Z,18.87
2018-04-01T06:36:52.326Z,18.90
2018-04-01T06:37:52.460Z,18.89
2018-04-01T06:38:52.387Z,18.86
2018-04-01T06:39:52.476Z,18.91
2018-04-01T06:40:52.744Z,18.86
2018-04-01T06:41:52.476Z,18.94
2018-04-01T06:42:52.504Z,18.91
2018-04-01T06:43:52.534Z,18.93
2018-04-01T06:44:52.577Z,18.93
2018-04-01T06:45:52.591Z,18.89
2018-04-01T06:46:52.621Z,18.93
2018-04-01T06:47:52.964Z,18.90
2018-04-01T06:48:52.678Z,18.94
2018-04-01T06:49:52.767Z,18.91
2018-04-01T06:50:52.820Z,18.93
2018-04-01T06:51:52.771Z,18.97
2018-04-01T06:52:52.799Z,18.94
2018-04-01T06:53:52.968Z,18.83
2018-04-01T06:54:53.211Z,18.90
2018-04-01T06:55:52.938Z,18.84
2018-04-01T06:56:52.918Z,18.93
2018-04-01T06:57:52.988Z,18.86
2018-04-01T06:58:53.021Z,18.84
2018-04-01T06:59:52.994Z,18.84
2018-04-01T07:00:53.022Z,18.94
2018-04-01T07:01:53.358Z,19.01
2018-04-01T07:02:53.183Z,18.87
2018-04-01T07:03:53.111Z,18.91
2018-04-01T07:04:53.142Z,18.91
2018-04-01T07:05:53.172Z,18.86
2018-04-01T07:06:53.194Z,18.89
2018-04-01T07:07:53.223Z,18.89
2018-04-01T07:08:53.562Z,18.90
2018-04-01T07:09:53.284Z,18.89
2018-04-01T07:10:53.319Z,18.87
2018-04-01T07:11:53.361Z,18.86
2018-04-01T07:12:53.386Z,18.89
2018-04-01T07:13:53.398Z,18.89
2018-04-01T07:14:53.431Z,18.82
2018-04-01T07:15:53.758Z,18.86
2018-04-01T07:16:53.484Z,18.89
2018-04-01T07:17:53.613Z,18.90
2018-04-01T07:18:53.721Z,18.86
2018-04-01T07:19:53.622Z,18.82
2018-04-01T07:20:53.601Z,18.82
2018-04-01T07:21:53.679Z,18.84
2018-04-01T07:22:53.963Z,18.82
2018-04-01T07:23:53.689Z,18.86
2018-04-01T07:24:53.723Z,18.78
2018-04-01T07:25:53.746Z,18.84
2018-04-01T07:26:53.775Z,18.79
2018-04-01T07:27:53.800Z,18.78
2018-04-01T07:28:53.894Z,18.75
2018-04-01T07:29:54.215Z,18.83
2018-04-01T07:30:53.946Z,18.79
2018-04-01T07:31:53.922Z,18.82
2018-04-01T07:32:53.951Z,18.87
2018-04-01T07:33:53.973Z,18.79
2018-04-01T07:34:54.049Z,18.75
2018-04-01T07:35:54.033Z,18.84
2018-04-01T07:36:54.362Z,18.78
2018-04-01T07:37:54.092Z,18.75
2018-04-01T07:38:54.169Z,18.75
2018-04-01T07:39:54.149Z,18.83
2018-04-01T07:40:54.174Z,18.78
2018-04-01T07:41:54.214Z,18.79
2018-04-01T07:42:54.232Z,18.82
2018-04-01T07:43:54.583Z,18.78
2018-04-01T07:44:54.290Z,18.78
2018-04-01T07:45:54.318Z,18.76
2018-04-01T07:46:54.358Z,18.78
2018-04-01T07:47:54.378Z,18.84
2018-04-01T07:48:54.404Z,18.84
2018-04-01T07:49:54.432Z,18.82
2018-04-01T07:50:54.767Z,18.83
2018-04-01T07:51:54.494Z,18.86
2018-04-01T07:52:54.521Z,18.84
2018-04-01T07:53:54.548Z,18.78
2018-04-01T07:54:54.582Z,18.84
2018-04-01T07:55:54.617Z,18.79
2018-04-01T07:56:54.992Z,18.86
2018-04-01T07:57:54.688Z,18.83
2018-04-01T07:58:54.693Z,18.84
2018-04-01T07:59:54.730Z,18.78
2018-04-01T08:00:54.749Z,18.87
2018-04-01T08:01:54.820Z,18.82
2018-04-01T08:02:55.165Z,18.89
2018-04-01T08:03:54.841Z,18.82
2018-04-01T08:04:54.880Z,18.82
2018-04-01T08:05:54.899Z,18.78
2018-04-01T08:06:54.992Z,18.84
2018-04-01T08:07:54.952Z,18.78
2018-04-01T08:08:55.281Z,18.84
2018-04-01T08:09:55.066Z,18.82
2018-04-01T08:10:55.048Z,18.82
2018-04-01T08:11:55.068Z,18.79
2018-04-01T08:12:55.145Z,18.78
2018-04-01T08:13:55.131Z,18.82
2018-04-01T08:14:55.486Z,18.76
2018-04-01T08:15:55.194Z,18.82
2018-04-01T08:16:55.220Z,18.83
2018-04-01T08:17:56.548Z,18.74
2018-04-01T08:18:57.902Z,18.74
2018-04-01T08:19:55.403Z,18.78
2018-04-01T08:20:55.632Z,18.82
2018-04-01T08:21:55.414Z,18.86
2018-04-01T08:22:55.396Z,18.79
2018-04-01T08:23:55.413Z,18.76
2018-04-01T08:24:55.448Z,18.82
2018-04-01T08:25:55.471Z,18.79
2018-04-01T08:26:55.800Z,18.86
2018-04-01T08:27:55.531Z,18.74
2018-04-01T08:28:55.557Z,18.78
2018-04-01T08:29:55.688Z,18.82
2018-04-01T08:30:55.692Z,18.87
2018-04-01T08:31:55.656Z,18.90
2018-04-01T08:32:56.025Z,18.87
2018-04-01T08:33:55.703Z,18.84
2018-04-01T08:34:55.793Z,18.84
2018-04-01T08:35:55.820Z,18.82
2018-04-01T08:36:55.853Z,18.86
2018-04-01T08:37:55.878Z,18.86
2018-04-01T08:38:56.208Z,18.86
2018-04-01T08:39:55.933Z,18.78
2018-04-01T08:40:55.981Z,18.83
2018-04-01T08:41:55.993Z,18.90
2018-04-01T08:42:56.121Z,18.82
2018-04-01T08:43:56.057Z,18.87
2018-04-01T08:44:56.386Z,18.83
2018-04-01T08:45:56.109Z,18.93
2018-04-01T08:46:56.136Z,18.83
2018-04-01T08:47:56.212Z,18.82
2018-04-01T08:48:56.194Z,18.84
2018-04-01T08:49:56.301Z,18.78
2018-04-01T08:50:56.570Z,18.82
2018-04-01T08:51:56.280Z,18.87
2018-04-01T08:52:56.312Z,18.87
2018-04-01T08:53:56.336Z,18.93
2018-04-01T08:54:56.380Z,18.86
2018-04-01T08:55:56.398Z,18.83
2018-04-01T08:56:56.727Z,18.86
2018-04-01T08:57:56.468Z,18.83
2018-04-01T08:58:56.489Z,18.82
2018-04-01T08:59:56.512Z,18.84
2018-04-01T09:00:56.540Z,18.83
2018-04-01T09:01:56.579Z,18.83
2018-04-01T09:02:56.905Z,18.90
2018-04-01T09:03:56.629Z,18.83
2018-04-01T09:04:56.655Z,18.89
2018-04-01T09:05:56.714Z,18.86
2018-04-01T09:06:56.756Z,18.91
2018-04-01T09:07:56.801Z,18.89
2018-04-01T09:08:57.076Z,18.91
2018-04-01T09:09:56.802Z,18.93
2018-04-01T09:10:56.829Z,19.01
2018-04-01T09:11:56.869Z,18.90
2018-04-01T09:12:56.889Z,18.96
2018-04-01T09:13:56.930Z,18.90
2018-04-01T09:14:56.952Z,18.78
2018-04-01T09:15:57.276Z,18.78
2018-04-01T09:16:57.020Z,18.78
2018-04-01T09:17:57.037Z,18.89
2018-04-01T09:18:57.086Z,18.94
2018-04-01T09:19:57.089Z,18.93
2018-04-01T09:20:57.144Z,18.83
2018-04-01T09:21:57.152Z,18.83
2018-04-01T09:22:57.481Z,18.79
2018-04-01T09:23:57.211Z,18.93
2018-04-01T09:24:57.232Z,18.84
2018-04-01T09:25:57.269Z,18.83
2018-04-01T09:26:57.302Z,18.97
2018-04-01T09:27:57.322Z,18.90
2018-04-01T09:28:57.357Z,18.90
2018-04-01T09:29:57.681Z,18.99
2018-04-01T09:30:57.412Z,18.93
2018-04-01T09:31:57.442Z,18.83
2018-04-01T09:32:57.465Z,18.90
2018-04-01T09:33:57.493Z,18.93
2018-04-01T09:34:57.529Z,18.93
2018-04-01T09:35:57.558Z,18.90
2018-04-01T09:36:58.003Z,18.93
2018-04-01T09:37:57.621Z,18.90
2018-04-01T09:38:57.650Z,18.94
2018-04-01T09:39:57.672Z,18.93
2018-04-01T09:40:57.704Z,18.99
2018-04-01T09:41:57.759Z,18.83
2018-04-01T09:42:57.858Z,18.84
2018-04-01T09:43:58.174Z,18.96
2018-04-01T09:44:57.830Z,18.91
2018-04-01T09:45:57.843Z,18.89
2018-04-01T09:46:58.178Z,18.84
2018-04-01T09:47:57.904Z,18.87
2018-04-01T09:48:57.947Z,18.93
2018-04-01T09:49:57.967Z,18.86
2018-04-01T09:50:58.297Z,18.89
2018-04-01T09:51:58.016Z,18.89
2018-04-01T09:52:58.046Z,18.93
2018-04-01T09:53:58.083Z,18.89
2018-04-01T09:54:58.104Z,19.01
2018-04-01T09:55:58.138Z,19.07
2018-04-01T09:56:58.762Z,18.87
2018-04-01T09:57:58.491Z,18.94
2018-04-01T09:58:58.223Z,18.93
2018-04-01T09:59:58.254Z,18.90
2018-04-01T10:00:58.282Z,18.94
2018-04-01T10:01:58.312Z,18.89
2018-04-01T10:02:58.342Z,18.93
2018-04-01T10:03:58.365Z,18.96
2018-04-01T10:04:58.697Z,18.91
2018-04-01T10:05:58.423Z,18.93
2018-04-01T10:06:58.467Z,18.94
2018-04-01T10:07:58.485Z,18.93
2018-04-01T10:08:58.513Z,18.89
2018-04-01T10:09:58.541Z,18.90
2018-04-01T10:10:58.572Z,18.89
2018-04-01T10:11:58.908Z,18.90
2018-04-01T10:12:58.636Z,18.89
2018-04-01T10:13:58.661Z,18.91
2018-04-01T10:14:58.691Z,18.86
2018-04-01T10:15:58.735Z,18.86
2018-04-01T10:16:58.752Z,18.89
2018-04-01T10:17:58.775Z,18.96
2018-04-01T10:18:59.116Z,18.89
2018-04-01T10:19:58.843Z,18.89
2018-04-01T10:20:58.866Z,18.89
2018-04-01T10:21:58.927Z,18.87
2018-04-01T10:22:58.950Z,18.96
2018-04-01T10:23:59.011Z,18.86
2018-04-01T10:24:59.130Z,19.02
2018-04-01T10:25:59.321Z,18.96
2018-04-01T10:26:59.059Z,19.01
2018-04-01T10:27:59.078Z,18.94
2018-04-01T10:28:59.672Z,18.87
2018-04-01T10:29:59.180Z,18.93
2018-04-01T10:30:59.154Z,18.83
2018-04-01T10:31:59.523Z,18.94
2018-04-01T10:32:59.213Z,18.86
2018-04-01T10:33:59.263Z,18.99
2018-04-01T10:34:59.276Z,18.91
2018-04-01T10:35:59.295Z,18.86
2018-04-01T10:36:59.324Z,18.86
2018-04-01T10:37:59.647Z,18.86
2018-04-01T10:38:59.382Z,18.94
2018-04-01T10:39:59.416Z,18.91
2018-04-01T10:40:59.446Z,18.89
2018-04-01T10:41:59.479Z,18.97
2018-04-01T10:42:59.499Z,18.90
2018-04-01T10:43:59.829Z,18.91
2018-04-01T10:44:59.565Z,19.02
2018-04-01T10:45:59.590Z,18.97
2018-04-01T10:46:59.658Z,18.94
2018-04-01T10:47:59.664Z,19.06
2018-04-01T10:48:59.693Z,19.01
2018-04-01T10:49:59.969Z,19.01
2018-04-01T10:50:59.746Z,18.97
2018-04-01T10:51:59.762Z,18.99
2018-04-01T10:52:59.796Z,19.06
2018-04-01T10:53:59.822Z,19.02
2018-04-01T10:54:59.928Z,19.02
2018-04-01T10:56:00.197Z,19.06
2018-04-01T10:56:59.923Z,19.06
2018-04-01T10:57:59.938Z,18.99
2018-04-01T10:58:59.965Z,19.02
2018-04-01T10:59:59.997Z,19.05
2018-04-01T11:01:00.047Z,19.07
2018-04-01T11:02:00.305Z,19.05
2018-04-01T11:03:00.084Z,19.06
2018-04-01T11:04:00.111Z,18.99
2018-04-01T11:05:00.143Z,19.07
2018-04-01T11:06:00.176Z,18.99
2018-04-01T11:07:00.203Z,19.07
2018-04-01T11:08:00.538Z,19.01
2018-04-01T11:09:00.260Z,18.99
2018-04-01T11:10:00.291Z,19.07
2018-04-01T11:11:00.324Z,19.09
2018-04-01T11:12:00.391Z,19.05
2018-04-01T11:13:00.470Z,19.05
2018-04-01T11:14:00.721Z,19.10
2018-04-01T11:15:00.434Z,18.99
2018-04-01T11:16:00.461Z,19.10
2018-04-01T11:17:00.525Z,18.99
2018-04-01T11:18:00.530Z,19.05
2018-04-01T11:19:00.606Z,19.06
2018-04-01T11:20:00.891Z,19.09
2018-04-01T11:21:00.629Z,19.10
2018-04-01T11:22:00.651Z,18.99
2018-04-01T11:23:00.667Z,19.07
2018-04-01T11:24:00.729Z,19.05
2018-04-01T11:25:00.727Z,19.05
2018-04-01T11:26:01.054Z,19.01
2018-04-01T11:27:00.784Z,19.05
2018-04-01T11:28:00.815Z,19.05
2018-04-01T11:29:00.846Z,19.01
2018-04-01T11:30:00.875Z,19.05
2018-04-01T11:31:00.899Z,18.96
2018-04-01T11:32:01.181Z,18.96
2018-04-01T11:33:00.958Z,19.05
2018-04-01T11:34:00.991Z,19.02
2018-04-01T11:35:01.069Z,18.99
2018-04-01T11:36:01.045Z,18.97
2018-04-01T11:37:01.097Z,18.97
2018-04-01T11:38:01.369Z,18.97
2018-04-01T11:39:01.178Z,19.06
2018-04-01T11:40:01.163Z,18.97
2018-04-01T11:41:01.233Z,19.05
2018-04-01T11:42:01.223Z,19.05
2018-04-01T11:43:01.247Z,19.02
2018-04-01T11:44:01.279Z,18.97
2018-04-01T11:45:01.605Z,19.01
2018-04-01T11:46:01.340Z,19.05
2018-04-01T11:47:01.382Z,18.99
2018-04-01T11:48:01.398Z,19.02
2018-04-01T11:49:01.426Z,19.06
2018-04-01T11:50:01.457Z,19.09
2018-04-01T11:51:01.527Z,19.07
2018-04-01T11:52:01.827Z,19.09
2018-04-01T11:53:01.551Z,19.06
2018-04-01T11:54:01.574Z,19.10
2018-04-01T11:55:01.613Z,19.09
2018-04-01T11:56:01.640Z,19.12
2018-04-01T11:57:01.661Z,19.10
2018-04-01T11:58:01.686Z,19.07
2018-04-01T11:59:02.031Z,19.12
2018-04-01T12:00:01.747Z,19.12
2018-04-01T12:01:01.790Z,19.17
2018-04-01T12:02:01.803Z,19.12
2018-04-01T12:03:01.842Z,19.12
2018-04-01T12:04:01.913Z,19.24
2018-04-01T12:05:01.892Z,19.13
2018-04-01T12:06:02.226Z,19.20
2018-04-01T12:07:01.948Z,19.25
2018-04-01T12:08:02.000Z,19.23
2018-04-01T12:09:02.068Z,19.25
2018-04-01T12:10:02.107Z,19.31
2018-04-01T12:11:02.068Z,19.28
2018-04-01T12:12:02.096Z,19.23
2018-04-01T12:13:02.431Z,19.32
2018-04-01T12:14:02.178Z,19.31
2018-04-01T12:15:02.182Z,19.28
2018-04-01T12:16:02.231Z,19.35
2018-04-01T12:17:02.246Z,19.35
2018-04-01T12:18:02.277Z,19.45
2018-04-01T12:19:02.309Z,19.50
2018-04-01T12:20:02.762Z,19.38
2018-04-01T12:21:02.361Z,19.45
2018-04-01T12:22:02.390Z,19.47
2018-04-01T12:23:02.422Z,19.45
2018-04-01T12:24:02.452Z,19.53
2018-04-01T12:25:02.478Z,19.55
2018-04-01T12:26:02.554Z,19.58
2018-04-01T12:27:02.839Z,19.65
2018-04-01T12:28:02.578Z,19.60
2018-04-01T12:29:02.597Z,19.57
2018-04-01T12:30:02.627Z,19.65
2018-04-01T12:31:02.664Z,19.71
2018-04-01T12:32:02.699Z,19.68
2018-04-01T12:33:02.715Z,19.71
2018-04-01T12:34:03.046Z,19.72
2018-04-01T12:35:02.778Z,19.75
2018-04-01T12:36:02.817Z,19.75
2018-04-01T12:37:02.844Z,19.75
2018-04-01T12:38:02.875Z,19.75
2018-04-01T12:39:02.902Z,19.83
2018-04-01T12:40:02.975Z,19.76
2018-04-01T12:41:03.255Z,19.82
2018-04-01T12:42:02.989Z,19.76
2018-04-01T12:43:03.020Z,19.78
2018-04-01T12:44:03.046Z,19.79
2018-04-01T12:45:03.096Z,19.80
2018-04-01T12:46:03.114Z,19.78
2018-04-01T12:47:03.136Z,19.82
2018-04-01T12:48:03.473Z,19.79
2018-04-01T12:49:03.193Z,19.85
2018-04-01T12:50:03.228Z,19.83
2018-04-01T12:51:03.266Z,19.86
2018-04-01T12:52:03.290Z,19.80
2018-04-01T12:53:03.321Z,19.83